Time;durP1;ratioP1;P1;durP2;ratioP2;P2;SDS_P1;SDS_P2;PMS_P1;PMS_P2;Temp;Humidity;BMP_temperature;BMP_pressure;BME280_temperature;BME280_humidity;BME280_pressure;Samples;Min_cycle;Max_cycle;Signal;HPM_P1;HPM_P2
2023/05/29 00:01:20;;;;;;;14.93;3.03;;;;;;;;;;4962832;28;20064;-77
2023/05/29 00:03:46;;;;;;;16.58;3.20;;;;;;;;;;4960748;28;20031;-77
2023/05/29 00:06:13;;;;;;;19.42;4.03;;;;;;;;;;4965101;28;20162;-76
2023/05/29 00:08:39;;;;;;;18.35;3.80;;;;;;;;;;4963057;28;20041;-77
2023/05/29 00:11:04;;;;;;;25.10;4.22;;;;;;;;;;4960282;28;20039;-77
2023/05/29 00:13:32;;;;;;;15.80;3.53;;;;;;;;;;4960287;28;20218;-77
2023/05/29 00:15:57;;;;;;;19.92;3.45;;;;;;;;;;4962123;28;20046;-77
2023/05/29 00:18:25;;;;;;;18.83;3.40;;;;;;;;;;4961552;28;20576;-77
2023/05/29 00:20:52;;;;;;;17.65;3.03;;;;;;;;;;4960211;28;20031;-77
2023/05/29 00:23:17;;;;;;;13.90;3.40;;;;;;;;;;4961263;28;20038;-77
2023/05/29 00:25:43;;;;;;;18.00;3.60;;;;;;;;;;4960240;28;20050;-76
2023/05/29 00:28:09;;;;;;;18.73;3.85;;;;;;;;;;4961579;28;20429;-76
2023/05/29 00:30:34;;;;;;;18.40;3.38;;;;;;;;;;4960123;28;20030;-76
2023/05/29 00:32:59;;;;;;;16.88;3.30;;;;;;;;;;4960627;28;20384;-77
2023/05/29 00:35:25;;;;;;;18.02;3.10;;;;;;;;;;4959738;28;20407;-77
2023/05/29 00:37:50;;;;;;;16.75;3.55;;;;;;;;;;5007874;28;20033;-76
2023/05/29 00:40:16;;;;;;;18.67;3.95;;;;;;;;;;5059661;28;20068;-76
2023/05/29 00:42:41;;;;;;;20.33;4.03;;;;;;;;;;5060633;28;20036;-76
2023/05/29 00:45:09;;;;;;;16.88;3.40;;;;;;;;;;5062236;28;20047;-76
2023/05/29 00:47:35;;;;;;;21.33;3.60;;;;;;;;;;5062279;28;20029;-76
2023/05/29 00:50:01;;;;;;;19.00;3.33;;;;;;;;;;5061716;28;20132;-77
2023/05/29 00:52:26;;;;;;;19.00;3.00;;;;;;;;;;5060281;28;20055;-77
2023/05/29 00:54:54;;;;;;;15.95;4.05;;;;;;;;;;5062587;28;20032;-77
2023/05/29 00:57:21;;;;;;;19.00;3.08;;;;;;;;;;5059881;28;20028;-75
2023/05/29 00:59:47;;;;;;;17.83;3.33;;;;;;;;;;5060796;28;20158;-76
2023/05/29 01:02:12;;;;;;;17.98;3.38;;;;;;;;;;5059132;28;20104;-76
2023/05/29 01:04:38;;;;;;;15.40;3.40;;;;;;;;;;5061464;28;20032;-76
2023/05/29 01:07:03;;;;;;;17.67;3.50;;;;;;;;;;5061723;28;20017;-78
2023/05/29 01:09:30;;;;;;;18.23;3.28;;;;;;;;;;5061793;28;20020;-76
2023/05/29 01:12:02;;;;;;;15.38;3.35;;;;;;;;;;5059871;28;20070;-76
2023/05/29 01:14:28;;;;;;;19.73;4.22;;;;;;;;;;5061250;28;20044;-76
2023/05/29 01:17:16;;;;;;;18.58;3.58;;;;;;;;;;5061676;28;20052;-77
2023/05/29 01:19:41;;;;;;;17.80;4.20;;;;;;;;;;5059834;28;20511;-77
2023/05/29 01:22:17;;;;;;;19.48;3.42;;;;;;;;;;5059430;28;20037;-76
2023/05/29 01:24:48;;;;;;;18.80;3.78;;;;;;;;;;5061025;28;20115;-75
2023/05/29 01:27:16;;;;;;;24.58;3.55;;;;;;;;;;5059594;28;20031;-76
2023/05/29 01:29:43;;;;;;;18.65;3.75;;;;;;;;;;5061583;28;20199;-76
2023/05/29 01:32:09;;;;;;;20.42;3.28;;;;;;;;;;5060038;28;20104;-76
2023/05/29 01:34:34;;;;;;;19.83;3.35;;;;;;;;;;5058827;28;20101;-76
2023/05/29 01:36:59;;;;;;;18.30;3.17;;;;;;;;;;5050272;28;20086;-75
2023/05/29 01:39:25;;;;;;;17.98;3.63;;;;;;;;;;4959292;28;20135;-75
2023/05/29 01:41:51;;;;;;;17.17;2.90;;;;;;;;;;4960120;28;20573;-75
2023/05/29 01:44:17;;;;;;;17.35;3.22;;;;;;;;;;4957615;28;20035;-75
2023/05/29 01:46:43;;;;;;;22.85;3.85;;;;;;;;;;4958381;28;20169;-76
2023/05/29 01:49:09;;;;;;;20.13;3.58;;;;;;;;;;4959097;28;20038;-75
2023/05/29 01:51:35;;;;;;;16.67;4.00;;;;;;;;;;4960010;28;20115;-76
2023/05/29 01:54:01;;;;;;;17.73;3.58;;;;;;;;;;4959149;28;20126;-76
2023/05/29 01:56:29;;;;;;;12.20;2.78;;;;;;;;;;4960318;28;20031;-76
2023/05/29 01:58:55;;;;;;;18.13;3.35;;;;;;;;;;4958268;28;20538;-76
2023/05/29 02:01:24;;;;;;;19.05;4.25;;;;;;;;;;4958516;28;20027;-76
2023/05/29 02:03:50;;;;;;;18.60;2.80;;;;;;;;;;4960076;28;20031;-76
2023/05/29 02:06:18;;;;;;;23.55;3.47;;;;;;;;;;4959126;28;20033;-76
2023/05/29 02:08:44;;;;;;;17.98;3.45;;;;;;;;;;4959868;28;20386;-76
2023/05/29 02:11:09;;;;;;;22.33;4.00;;;;;;;;;;4957460;28;20030;-76
2023/05/29 02:13:34;;;;;;;14.93;3.45;;;;;;;;;;4960690;28;20054;-76
2023/05/29 02:16:00;;;;;;;18.25;3.10;;;;;;;;;;4962600;28;20055;-74
2023/05/29 02:18:26;;;;;;;20.15;3.90;;;;;;;;;;4961923;28;20541;-76
2023/05/29 02:20:51;;;;;;;16.25;2.80;;;;;;;;;;4962500;28;20126;-76
2023/05/29 02:23:21;;;;;;;18.63;3.28;;;;;;;;;;4962791;28;20138;-76
2023/05/29 02:25:46;;;;;;;17.73;3.55;;;;;;;;;;4944522;28;20071;-76
2023/05/29 02:28:11;;;;;;;22.88;3.80;;;;;;;;;;4961629;28;20027;-76
2023/05/29 02:30:37;;;;;;;16.33;3.28;;;;;;;;;;4962266;28;20057;-76
2023/05/29 02:33:02;;;;;;;14.80;3.10;;;;;;;;;;4963442;28;20042;-76
2023/05/29 02:35:30;;;;;;;17.95;3.00;;;;;;;;;;4962993;28;20039;-74
2023/05/29 02:37:57;;;;;;;15.20;3.22;;;;;;;;;;5013372;28;20036;-76
2023/05/29 02:40:23;;;;;;;12.05;3.00;;;;;;;;;;5062279;28;20032;-76
2023/05/29 02:42:51;;;;;;;23.90;3.33;;;;;;;;;;5064379;28;20055;-77
2023/05/29 02:45:16;;;;;;;16.02;3.00;;;;;;;;;;5064108;28;20036;-77
2023/05/29 02:47:42;;;;;;;15.50;3.00;;;;;;;;;;5062177;28;20112;-76
2023/05/29 02:50:08;;;;;;;16.83;3.35;;;;;;;;;;5094624;28;20050;-76
2023/05/29 02:52:33;;;;;;;22.60;3.78;;;;;;;;;;5062344;28;20090;-77
2023/05/29 02:54:59;;;;;;;20.63;3.90;;;;;;;;;;5063995;28;20458;-77
2023/05/29 02:57:25;;;;;;;17.38;3.40;;;;;;;;;;5062579;28;20025;-76
2023/05/29 02:59:51;;;;;;;15.52;3.22;;;;;;;;;;5095583;28;20035;-76
2023/05/29 03:02:16;;;;;;;14.60;3.25;;;;;;;;;;5063903;28;20527;-76
2023/05/29 03:04:42;;;;;;;15.13;3.10;;;;;;;;;;5063683;28;20020;-76
2023/05/29 03:07:09;;;;;;;16.70;3.33;;;;;;;;;;5064314;28;20028;-76
2023/05/29 03:09:35;;;;;;;19.48;3.00;;;;;;;;;;5061700;28;20499;-76
2023/05/29 03:12:01;;;;;;;15.88;3.17;;;;;;;;;;5045510;28;20033;-77
2023/05/29 03:14:27;;;;;;;15.23;3.45;;;;;;;;;;5061512;28;20236;-76
2023/05/29 03:16:53;;;;;;;20.55;3.90;;;;;;;;;;5045368;28;20029;-77
2023/05/29 03:19:18;;;;;;;14.23;3.38;;;;;;;;;;5063160;28;20078;-77
2023/05/29 03:21:43;;;;;;;16.52;3.50;;;;;;;;;;5044792;28;20554;-77
2023/05/29 03:24:09;;;;;;;17.08;3.10;;;;;;;;;;5062171;28;20104;-77
2023/05/29 03:26:36;;;;;;;15.73;3.15;;;;;;;;;;5063311;28;20505;-77
2023/05/29 03:29:01;;;;;;;13.95;2.90;;;;;;;;;;5061313;28;20036;-77
2023/05/29 03:31:27;;;;;;;13.18;3.10;;;;;;;;;;5062442;28;20547;-76
2023/05/29 03:33:54;;;;;;;16.33;3.38;;;;;;;;;;5062899;28;20177;-77
2023/05/29 03:36:20;;;;;;;12.35;3.22;;;;;;;;;;5061190;28;20032;-78
2023/05/29 03:38:45;;;;;;;16.33;3.22;;;;;;;;;;4975721;28;20054;-78
2023/05/29 03:41:10;;;;;;;17.33;3.53;;;;;;;;;;4961880;28;20491;-76
2023/05/29 03:43:36;;;;;;;16.88;4.40;;;;;;;;;;4960826;28;20053;-75
2023/05/29 03:46:01;;;;;;;16.73;3.10;;;;;;;;;;4961660;28;20108;-77
2023/05/29 03:48:26;;;;;;;9.32;2.72;;;;;;;;;;4961449;28;20088;-77
2023/05/29 03:50:52;;;;;;;16.00;3.58;;;;;;;;;;4959287;28;20054;-76
2023/05/29 03:53:17;;;;;;;20.05;3.72;;;;;;;;;;4961038;28;20480;-78
2023/05/29 03:55:45;;;;;;;19.23;3.53;;;;;;;;;;4961243;28;20611;-77
2023/05/29 03:58:13;;;;;;;16.08;3.38;;;;;;;;;;4958675;28;20038;-77
2023/05/29 04:00:39;;;;;;;15.25;3.03;;;;;;;;;;4961709;28;20030;-77
2023/05/29 04:03:04;;;;;;;14.63;3.30;;;;;;;;;;4959377;28;20514;-76
2023/05/29 04:05:29;;;;;;;19.23;3.95;;;;;;;;;;4959559;28;20088;-77
2023/05/29 04:07:55;;;;;;;19.27;3.33;;;;;;;;;;4960055;28;20104;-77
2023/05/29 04:10:20;;;;;;;22.55;3.85;;;;;;;;;;4961046;28;20121;-77
2023/05/29 04:12:46;;;;;;;15.30;2.95;;;;;;;;;;4959663;28;20035;-77
2023/05/29 04:15:11;;;;;;;16.58;3.05;;;;;;;;;;4960625;28;20038;-77
2023/05/29 04:17:36;;;;;;;20.02;3.47;;;;;;;;;;4960473;28;20042;-79
2023/05/29 04:20:07;;;;;;;23.52;3.80;;;;;;;;;;4958894;28;20076;-75
2023/05/29 04:22:33;;;;;;;15.50;3.00;;;;;;;;;;4960362;28;20030;-76
2023/05/29 04:24:58;;;;;;;21.10;3.20;;;;;;;;;;4942355;28;20278;-78
2023/05/29 04:27:23;;;;;;;19.25;3.67;;;;;;;;;;4960032;28;20410;-77
2023/05/29 04:29:51;;;;;;;14.88;2.70;;;;;;;;;;4959205;28;20033;-78
2023/05/29 04:32:16;;;;;;;13.25;3.35;;;;;;;;;;4958133;28;20026;-77
2023/05/29 04:34:43;;;;;;;17.58;3.58;;;;;;;;;;4958083;28;20039;-78
2023/05/29 04:37:09;;;;;;;21.48;3.50;;;;;;;;;;4958714;28;20038;-78
2023/05/29 04:39:35;;;;;;;14.10;2.88;;;;;;;;;;4958962;28;20039;-78
2023/05/29 04:42:02;;;;;;;14.68;3.15;;;;;;;;;;4959064;28;20121;-76
2023/05/29 04:44:29;;;;;;;21.67;3.45;;;;;;;;;;4959967;28;20031;-77
2023/05/29 04:46:54;;;;;;;18.08;4.05;;;;;;;;;;4941957;28;20045;-77
2023/05/29 04:49:20;;;;;;;16.00;3.83;;;;;;;;;;4960627;28;20386;-76
2023/05/29 04:51:46;;;;;;;15.57;3.25;;;;;;;;;;4950409;28;20038;-76
2023/05/29 04:54:11;;;;;;;17.38;3.13;;;;;;;;;;4958037;28;20038;-76
2023/05/29 04:56:37;;;;;;;18.77;4.00;;;;;;;;;;4960400;28;20042;-77
2023/05/29 04:59:03;;;;;;;19.02;4.07;;;;;;;;;;4958760;28;20042;-77
2023/05/29 05:01:28;;;;;;;22.30;4.40;;;;;;;;;;4957857;28;20042;-77
2023/05/29 05:03:55;;;;;;;15.68;2.97;;;;;;;;;;4957615;28;20096;-78
2023/05/29 05:06:25;;;;;;;15.90;3.05;;;;;;;;;;4958049;28;20372;-78
2023/05/29 05:08:51;;;;;;;15.23;3.13;;;;;;;;;;4958287;28;20446;-78
2023/05/29 05:11:16;;;;;;;15.65;2.88;;;;;;;;;;4959712;28;20035;-77
2023/05/29 05:13:41;;;;;;;15.63;3.00;;;;;;;;;;4957153;28;20274;-77
2023/05/29 05:16:07;;;;;;;15.27;2.80;;;;;;;;;;4960270;28;20514;-79
2023/05/29 05:18:32;;;;;;;12.07;2.60;;;;;;;;;;4946858;28;20592;-78
2023/05/29 05:20:57;;;;;;;18.45;3.05;;;;;;;;;;4939227;28;20046;-79
2023/05/29 05:23:25;;;;;;;11.93;2.78;;;;;;;;;;4937215;28;20059;-77
2023/05/29 05:25:50;;;;;;;16.50;3.35;;;;;;;;;;4939643;28;20066;-78
2023/05/29 05:28:15;;;;;;;17.25;3.10;;;;;;;;;;4969835;28;20088;-76
2023/05/29 05:30:41;;;;;;;13.00;2.45;;;;;;;;;;4939901;28;20078;-78
2023/05/29 05:33:07;;;;;;;17.02;3.42;;;;;;;;;;4922370;28;20027;-78
2023/05/29 05:35:34;;;;;;;13.52;2.95;;;;;;;;;;4909744;28;20484;-78
2023/05/29 05:38:02;;;;;;;16.25;2.92;;;;;;;;;;5004081;28;20032;-79
2023/05/29 05:40:28;;;;;;;15.00;3.25;;;;;;;;;;5058607;28;20389;-78
2023/05/29 05:42:53;;;;;;;10.10;2.42;;;;;;;;;;5058570;28;20021;-79
2023/05/29 05:45:18;;;;;;;14.48;3.00;;;;;;;;;;5056452;28;20090;-77
2023/05/29 05:47:44;;;;;;;14.90;2.80;;;;;;;;;;5060782;28;20027;-77
2023/05/29 05:50:09;;;;;;;8.80;2.47;;;;;;;;;;5087271;28;20028;-78
2023/05/29 05:52:35;;;;;;;13.95;2.92;;;;;;;;;;5062797;28;20016;-78
2023/05/29 05:55:00;;;;;;;14.43;3.03;;;;;;;;;;4933254;28;20150;-78
2023/05/29 05:57:26;;;;;;;14.52;2.85;;;;;;;;;;4942962;28;20031;-76
2023/05/29 05:59:51;;;;;;;15.70;3.25;;;;;;;;;;4942285;28;20396;-78
2023/05/29 06:02:17;;;;;;;13.15;3.10;;;;;;;;;;4943244;28;20092;-77
2023/05/29 06:04:43;;;;;;;15.45;3.35;;;;;;;;;;4943960;28;20403;-78
2023/05/29 06:07:08;;;;;;;17.20;3.22;;;;;;;;;;4941269;28;20046;-77
2023/05/29 06:09:33;;;;;;;13.65;2.83;;;;;;;;;;4943742;28;20081;-78
2023/05/29 06:11:59;;;;;;;16.30;3.20;;;;;;;;;;4941796;28;20031;-76
2023/05/29 06:14:27;;;;;;;12.55;2.80;;;;;;;;;;4942141;28;20031;-76
2023/05/29 06:16:53;;;;;;;12.65;2.72;;;;;;;;;;4941872;28;20028;-79
2023/05/29 06:19:19;;;;;;;14.38;2.55;;;;;;;;;;4942898;28;20042;-78
2023/05/29 06:21:44;;;;;;;12.18;2.70;;;;;;;;;;4960653;28;20031;-77
2023/05/29 06:24:10;;;;;;;12.15;2.95;;;;;;;;;;4957084;28;20038;-78
2023/05/29 06:26:37;;;;;;;15.98;3.30;;;;;;;;;;4963443;28;20415;-78
2023/05/29 06:29:02;;;;;;;12.07;2.88;;;;;;;;;;4940788;28;20039;-78
2023/05/29 06:31:31;;;;;;;15.77;2.85;;;;;;;;;;4942243;28;20034;-77
2023/05/29 06:33:57;;;;;;;12.02;2.97;;;;;;;;;;4941039;28;20059;-77
2023/05/29 06:36:22;;;;;;;13.60;2.80;;;;;;;;;;4938516;28;20100;-78
2023/05/29 06:38:48;;;;;;;11.90;2.55;;;;;;;;;;4941912;28;20035;-78
2023/05/29 06:41:14;;;;;;;10.45;2.70;;;;;;;;;;4937059;28;20058;-77
2023/05/29 06:43:42;;;;;;;11.50;2.88;;;;;;;;;;4940139;28;20559;-78
2023/05/29 06:46:08;;;;;;;14.88;2.70;;;;;;;;;;4947156;28;21107;-76
2023/05/29 06:48:34;;;;;;;13.07;2.70;;;;;;;;;;4938906;28;20027;-76
2023/05/29 06:51:00;;;;;;;15.85;3.40;;;;;;;;;;4939794;28;20561;-77
2023/05/29 06:53:25;;;;;;;13.55;3.00;;;;;;;;;;4939254;28;20039;-76
2023/05/29 06:55:54;;;;;;;12.82;2.55;;;;;;;;;;4941130;28;20423;-76
2023/05/29 06:58:19;;;;;;;13.38;2.50;;;;;;;;;;4939340;28;20522;-74
2023/05/29 07:00:45;;;;;;;15.32;2.42;;;;;;;;;;4941087;28;20024;-76
2023/05/29 07:03:10;;;;;;;9.68;2.10;;;;;;;;;;4941849;28;20039;-75
2023/05/29 07:05:36;;;;;;;9.90;2.22;;;;;;;;;;4941616;28;20108;-76
2023/05/29 07:08:01;;;;;;;11.68;2.70;;;;;;;;;;4941943;28;20027;-75
2023/05/29 07:10:29;;;;;;;12.63;2.53;;;;;;;;;;4939989;28;20038;-77
2023/05/29 07:12:55;;;;;;;17.70;3.15;;;;;;;;;;4941201;28;20110;-77
2023/05/29 07:15:21;;;;;;;16.08;2.67;;;;;;;;;;4939074;28;20035;-76
2023/05/29 07:17:46;;;;;;;19.67;2.80;;;;;;;;;;4934241;28;20089;-75
2023/05/29 07:20:12;;;;;;;13.05;2.70;;;;;;;;;;4938095;28;20097;-77
2023/05/29 07:22:38;;;;;;;11.10;2.33;;;;;;;;;;4933997;28;20039;-76
2023/05/29 07:25:04;;;;;;;14.27;2.72;;;;;;;;;;4938519;28;20023;-75
2023/05/29 07:27:32;;;;;;;12.52;2.58;;;;;;;;;;4953647;28;20127;-77
2023/05/29 07:29:57;;;;;;;9.75;2.25;;;;;;;;;;4942208;28;20019;-76
2023/05/29 07:32:22;;;;;;;9.90;2.60;;;;;;;;;;4940771;28;20031;-77
2023/05/29 07:34:49;;;;;;;10.43;2.25;;;;;;;;;;4971859;28;20043;-77
2023/05/29 07:37:15;;;;;;;12.13;2.40;;;;;;;;;;4963978;28;20039;-75
2023/05/29 07:39:40;;;;;;;13.50;2.30;;;;;;;;;;4969043;28;20039;-73
2023/05/29 07:42:08;;;;;;;11.30;2.67;;;;;;;;;;4970385;28;20035;-75
2023/05/29 07:44:33;;;;;;;15.43;2.72;;;;;;;;;;4941543;28;20616;-69
2023/05/29 07:46:59;;;;;;;12.23;2.70;;;;;;;;;;4975482;28;20039;-69
2023/05/29 07:49:24;;;;;;;12.35;2.67;;;;;;;;;;4958378;28;20027;-69
2023/05/29 07:51:50;;;;;;;12.30;2.40;;;;;;;;;;4954057;28;20032;-69
2023/05/29 07:54:18;;;;;;;12.02;2.50;;;;;;;;;;4971105;28;20517;-69
2023/05/29 07:56:43;;;;;;;11.05;2.05;;;;;;;;;;4941086;28;20036;-69
2023/05/29 07:59:09;;;;;;;13.13;2.80;;;;;;;;;;4940739;28;20713;-70
2023/05/29 08:01:39;;;;;;;11.52;2.75;;;;;;;;;;4941440;28;20031;-69
2023/05/29 08:04:04;;;;;;;9.35;2.05;;;;;;;;;;4940287;28;20031;-69
2023/05/29 08:06:32;;;;;;;11.55;2.35;;;;;;;;;;4940080;28;20024;-70
2023/05/29 08:08:57;;;;;;;11.63;2.42;;;;;;;;;;4938678;28;20034;-70
2023/05/29 08:11:23;;;;;;;10.13;2.05;;;;;;;;;;4939251;28;20027;-71
2023/05/29 08:13:49;;;;;;;8.50;2.30;;;;;;;;;;4946990;28;20527;-80
2023/05/29 08:16:16;;;;;;;9.82;2.30;;;;;;;;;;4960215;28;20035;-80
2023/05/29 08:18:42;;;;;;;7.65;1.85;;;;;;;;;;4960809;28;20039;-80
2023/05/29 08:21:09;;;;;;;9.75;2.22;;;;;;;;;;5009515;28;20130;-81
2023/05/29 08:23:39;;;;;;;8.45;2.00;;;;;;;;;;4941931;28;20094;-81
2023/05/29 08:26:05;;;;;;;8.75;2.03;;;;;;;;;;4943551;28;20062;-77
2023/05/29 08:28:32;;;;;;;10.45;2.42;;;;;;;;;;4922246;28;20036;-80
2023/05/29 08:30:58;;;;;;;10.15;2.03;;;;;;;;;;4957973;28;20058;-81
2023/05/29 08:33:23;;;;;;;10.35;1.95;;;;;;;;;;4958815;28;20043;-79
2023/05/29 08:35:51;;;;;;;11.82;2.47;;;;;;;;;;4929329;28;20031;-80
2023/05/29 08:38:16;;;;;;;10.68;2.55;;;;;;;;;;5021525;28;20056;-81
2023/05/29 08:40:42;;;;;;;13.57;2.50;;;;;;;;;;5079994;28;20492;-80
2023/05/29 08:43:22;;;;;;;9.13;2.40;;;;;;;;;;5062947;28;20025;-80
2023/05/29 08:45:47;;;;;;;9.65;2.10;;;;;;;;;;4950345;28;20089;-76
2023/05/29 08:48:14;;;;;;;8.65;2.33;;;;;;;;;;4939975;28;20028;-75
2023/05/29 08:50:46;;;;;;;10.70;2.25;;;;;;;;;;4939795;28;20031;-75
2023/05/29 08:53:12;;;;;;;9.73;2.10;;;;;;;;;;4972681;28;20506;-76
2023/05/29 08:55:38;;;;;;;10.95;2.38;;;;;;;;;;4956235;28;20141;-76
2023/05/29 08:58:04;;;;;;;6.68;2.10;;;;;;;;;;4940991;28;20547;-74
2023/05/29 09:00:29;;;;;;;10.77;2.75;;;;;;;;;;4944170;28;20492;-76
2023/05/29 09:02:55;;;;;;;11.77;2.42;;;;;;;;;;4940402;28;20051;-73
2023/05/29 09:05:21;;;;;;;11.52;2.25;;;;;;;;;;4942373;28;20038;-75
2023/05/29 09:07:47;;;;;;;12.70;2.63;;;;;;;;;;4953195;28;20027;-74
2023/05/29 09:10:13;;;;;;;14.00;2.60;;;;;;;;;;4944955;28;20137;-74
2023/05/29 09:12:39;;;;;;;13.95;2.55;;;;;;;;;;4948104;28;20376;-75
2023/05/29 09:15:16;;;;;;;15.45;2.72;;;;;;;;;;4945794;28;20451;-73
2023/05/29 09:17:42;;;;;;;14.52;2.38;;;;;;;;;;4945039;28;20034;-75
2023/05/29 09:20:23;;;;;;;13.07;2.78;;;;;;;;;;4959633;28;20187;-76
2023/05/29 09:22:54;;;;;;;11.75;2.80;;;;;;;;;;4956502;28;20023;-77
2023/05/29 09:25:22;;;;;;;14.70;2.70;;;;;;;;;;4956732;28;20556;-76
2023/05/29 09:27:50;;;;;;;12.90;2.63;;;;;;;;;;4959143;28;20054;-76
2023/05/29 09:30:38;;;;;;;13.27;2.53;;;;;;;;;;4957281;28;20023;-73
2023/05/29 09:33:05;;;;;;;11.18;2.60;;;;;;;;;;4946784;28;20058;-75
2023/05/29 09:35:34;;;;;;;10.02;2.78;;;;;;;;;;4959641;28;20511;-76
2023/05/29 09:38:00;;;;;;;10.00;3.08;;;;;;;;;;5009249;28;20021;-76
2023/05/29 09:40:26;;;;;;;11.82;2.78;;;;;;;;;;5057859;28;20016;-76
2023/05/29 09:42:54;;;;;;;15.27;2.90;;;;;;;;;;5057200;28;20025;-76
2023/05/29 09:45:20;;;;;;;13.23;3.35;;;;;;;;;;5042490;28;20038;-76
2023/05/29 09:47:45;;;;;;;11.32;3.05;;;;;;;;;;4948844;28;20028;-77
2023/05/29 09:50:22;;;;;;;11.52;3.20;;;;;;;;;;4947561;28;20027;-77
2023/05/29 09:52:52;;;;;;;11.15;2.83;;;;;;;;;;4989289;28;20498;-77
2023/05/29 09:55:21;;;;;;;15.20;2.58;;;;;;;;;;4943572;28;20050;-75
2023/05/29 09:57:49;;;;;;;19.00;3.47;;;;;;;;;;4940448;28;20027;-74
2023/05/29 10:00:16;;;;;;;15.25;3.00;;;;;;;;;;4970753;28;20023;-75
2023/05/29 10:02:41;;;;;;;13.38;3.55;;;;;;;;;;4938850;28;20050;-76
2023/05/29 10:05:11;;;;;;;13.93;3.17;;;;;;;;;;4938838;28;20023;-77
2023/05/29 10:07:36;;;;;;;15.52;3.15;;;;;;;;;;4944199;28;20023;-73
2023/05/29 10:10:03;;;;;;;15.80;4.00;;;;;;;;;;4957595;28;20089;-79
2023/05/29 10:12:29;;;;;;;15.75;3.40;;;;;;;;;;4958547;28;20023;-76
2023/05/29 10:15:00;;;;;;;11.32;3.25;;;;;;;;;;4959757;28;20499;-77
2023/05/29 10:17:28;;;;;;;16.77;3.15;;;;;;;;;;4958148;28;20531;-75
2023/05/29 10:19:55;;;;;;;17.27;3.30;;;;;;;;;;4958775;28;20050;-75
2023/05/29 10:22:23;;;;;;;11.40;3.40;;;;;;;;;;4960276;28;20094;-76
2023/05/29 10:24:50;;;;;;;12.85;3.30;;;;;;;;;;4960183;28;20057;-77
2023/05/29 10:27:15;;;;;;;12.68;3.15;;;;;;;;;;4959096;28;20066;-73
2023/05/29 10:29:48;;;;;;;17.50;3.30;;;;;;;;;;4959244;28;20126;-76
2023/05/29 10:32:29;;;;;;;8.43;2.88;;;;;;;;;;4959444;28;20035;-76
2023/05/29 10:35:11;;;;;;;10.68;3.10;;;;;;;;;;4961768;28;20495;-77
2023/05/29 10:37:52;;;;;;;12.98;3.70;;;;;;;;;;4997509;28;20029;-77
2023/05/29 10:40:23;;;;;;;15.18;3.42;;;;;;;;;;5062026;28;20024;-74
2023/05/29 10:42:52;;;;;;;12.93;3.25;;;;;;;;;;5064170;28;20501;-77
2023/05/29 10:45:37;;;;;;;12.50;3.30;;;;;;;;;;5063536;28;20516;-76
2023/05/29 10:48:14;;;;;;;10.70;3.10;;;;;;;;;;5049170;28;20036;-74
2023/05/29 10:50:46;;;;;;;12.73;3.38;;;;;;;;;;5063977;28;20039;-77
2023/05/29 10:53:16;;;;;;;14.52;3.40;;;;;;;;;;5062058;28;20032;-74
2023/05/29 10:55:42;;;;;;;14.98;3.38;;;;;;;;;;5031460;28;20023;-74
2023/05/29 10:58:08;;;;;;;11.50;3.15;;;;;;;;;;4963254;28;20023;-74
2023/05/29 11:00:34;;;;;;;9.27;2.72;;;;;;;;;;4961982;28;20023;-77
2023/05/29 11:03:03;;;;;;;16.35;3.65;;;;;;;;;;4959836;28;20077;-77
2023/05/29 11:05:29;;;;;;;11.95;3.08;;;;;;;;;;4962492;28;20019;-76
2023/05/29 11:07:59;;;;;;;12.48;2.70;;;;;;;;;;4954491;28;20030;-77
2023/05/29 11:10:46;;;;;;;14.50;3.35;;;;;;;;;;4962629;28;20488;-76
2023/05/29 11:13:23;;;;;;;9.80;3.25;;;;;;;;;;4950468;28;20061;-76
2023/05/29 11:16:04;;;;;;;11.88;3.10;;;;;;;;;;4943538;28;20027;-76
2023/05/29 11:18:29;;;;;;;14.82;3.10;;;;;;;;;;4959584;28;20023;-75
2023/05/29 11:21:00;;;;;;;13.93;3.35;;;;;;;;;;4945030;28;20166;-75
2023/05/29 11:23:31;;;;;;;14.25;3.45;;;;;;;;;;4961697;28;20130;-69
2023/05/29 11:25:57;;;;;;;12.07;3.03;;;;;;;;;;4973096;28;20166;-71
2023/05/29 11:28:25;;;;;;;14.68;3.25;;;;;;;;;;4951135;28;20042;-69
2023/05/29 11:31:00;;;;;;;10.02;3.05;;;;;;;;;;4921918;28;20027;-71
2023/05/29 11:33:26;;;;;;;15.25;3.33;;;;;;;;;;4953499;28;20504;-70
2023/05/29 11:35:57;;;;;;;14.25;3.80;;;;;;;;;;4940372;28;20027;-71
2023/05/29 11:38:25;;;;;;;13.67;2.90;;;;;;;;;;5023849;28;20043;-71
2023/05/29 11:40:51;;;;;;;12.32;3.50;;;;;;;;;;5060512;28;20033;-71
2023/05/29 11:43:16;;;;;;;13.65;3.25;;;;;;;;;;4957382;28;20363;-69
2023/05/29 11:45:42;;;;;;;15.77;3.25;;;;;;;;;;4953904;28;20026;-68
2023/05/29 11:48:07;;;;;;;13.40;3.20;;;;;;;;;;4961029;28;20023;-71
2023/05/29 11:50:36;;;;;;;11.27;3.20;;;;;;;;;;4956314;28;20023;-69
2023/05/29 11:53:01;;;;;;;12.63;3.65;;;;;;;;;;4946283;28;20065;-69
2023/05/29 11:55:27;;;;;;;16.98;3.60;;;;;;;;;;4946862;28;20554;-71
2023/05/29 11:57:56;;;;;;;11.25;3.42;;;;;;;;;;4951061;28;20073;-70
2023/05/29 12:00:24;;;;;;;13.40;3.00;;;;;;;;;;4959142;28;20532;-69
2023/05/29 12:02:50;;;;;;;16.27;3.00;;;;;;;;;;4958648;28;20295;-70
2023/05/29 12:05:16;;;;;;;13.65;3.38;;;;;;;;;;4961850;28;20529;-69
2023/05/29 12:07:48;;;;;;;13.40;3.33;;;;;;;;;;4961391;28;20190;-67
2023/05/29 12:10:15;;;;;;;12.00;3.05;;;;;;;;;;4950759;28;20027;-69
2023/05/29 12:12:40;;;;;;;14.02;3.30;;;;;;;;;;4942566;28;20037;-74
2023/05/29 12:15:07;;;;;;;11.85;3.17;;;;;;;;;;4942300;28;20031;-70
2023/05/29 12:17:35;;;;;;;15.00;3.78;;;;;;;;;;4941417;28;20035;-69
2023/05/29 12:20:01;;;;;;;13.15;3.15;;;;;;;;;;4941371;28;20236;-70
2023/05/29 12:22:32;;;;;;;13.30;3.22;;;;;;;;;;4959640;28;20514;-70
2023/05/29 12:25:03;;;;;;;13.05;3.30;;;;;;;;;;4961404;28;20019;-70
2023/05/29 12:27:29;;;;;;;15.52;3.53;;;;;;;;;;4960673;28;20492;-69
2023/05/29 12:30:01;;;;;;;13.38;3.20;;;;;;;;;;4948060;28;20068;-71
2023/05/29 12:32:33;;;;;;;13.65;3.60;;;;;;;;;;4957319;28;20244;-68
2023/05/29 12:34:59;;;;;;;16.95;3.50;;;;;;;;;;4959105;28;20518;-70
2023/05/29 12:37:25;;;;;;;14.88;3.25;;;;;;;;;;4985709;28;20033;-69
2023/05/29 12:40:11;;;;;;;10.85;2.90;;;;;;;;;;5057397;28;20062;-71
2023/05/29 12:42:40;;;;;;;9.60;2.85;;;;;;;;;;5052297;28;20520;-69
2023/05/29 12:45:07;;;;;;;13.20;3.55;;;;;;;;;;5055582;28;20056;-69
2023/05/29 12:47:35;;;;;;;13.57;3.65;;;;;;;;;;5057659;28;20524;-70
2023/05/29 12:50:05;;;;;;;12.52;3.42;;;;;;;;;;5039688;28;20478;-70
2023/05/29 12:52:30;;;;;;;11.35;3.40;;;;;;;;;;5057381;28;20469;-70
2023/05/29 12:54:56;;;;;;;15.07;3.38;;;;;;;;;;5060396;28;20051;-69
2023/05/29 12:57:22;;;;;;;15.13;3.25;;;;;;;;;;5060454;28;20031;-70
2023/05/29 12:59:47;;;;;;;12.13;3.60;;;;;;;;;;5094429;28;20032;-70
2023/05/29 13:02:13;;;;;;;17.10;3.25;;;;;;;;;;5061803;28;20029;-71
2023/05/29 13:04:39;;;;;;;12.43;2.78;;;;;;;;;;5056089;28;21153;-71
2023/05/29 13:07:05;;;;;;;11.95;3.15;;;;;;;;;;5091449;28;20044;-71
2023/05/29 13:09:30;;;;;;;14.80;3.13;;;;;;;;;;5053697;28;20436;-72
2023/05/29 13:11:57;;;;;;;14.65;3.35;;;;;;;;;;5049205;28;20029;-71
2023/05/29 13:14:22;;;;;;;16.25;3.50;;;;;;;;;;5054475;28;20114;-71
2023/05/29 13:16:50;;;;;;;16.45;3.22;;;;;;;;;;5058783;28;20036;-70
2023/05/29 13:19:18;;;;;;;12.57;3.40;;;;;;;;;;5056847;28;20024;-71
2023/05/29 13:21:48;;;;;;;10.10;3.20;;;;;;;;;;5057221;28;20030;-71
2023/05/29 13:24:13;;;;;;;11.90;3.40;;;;;;;;;;5055716;28;20086;-72
2023/05/29 13:26:38;;;;;;;11.40;3.10;;;;;;;;;;5059574;28;20033;-69
2023/05/29 13:29:04;;;;;;;15.43;3.90;;;;;;;;;;5058648;28;20075;-72
2023/05/29 13:31:29;;;;;;;10.27;3.28;;;;;;;;;;5059825;28;20491;-70
2023/05/29 13:33:54;;;;;;;13.93;3.58;;;;;;;;;;5059234;28;20097;-71
2023/05/29 13:36:20;;;;;;;11.55;3.08;;;;;;;;;;5058933;28;20039;-71
2023/05/29 13:38:46;;;;;;;9.50;2.65;;;;;;;;;;4973990;28;20027;-71
2023/05/29 13:41:11;;;;;;;10.75;2.92;;;;;;;;;;4940333;28;20031;-71
2023/05/29 13:43:36;;;;;;;13.93;3.00;;;;;;;;;;4959151;28;20101;-70
2023/05/29 13:46:02;;;;;;;10.63;3.10;;;;;;;;;;4941043;28;20041;-71
2023/05/29 13:48:28;;;;;;;11.85;2.78;;;;;;;;;;4954490;28;20043;-71
2023/05/29 13:50:53;;;;;;;13.95;3.30;;;;;;;;;;4933753;28;20036;-71
2023/05/29 13:53:19;;;;;;;13.52;3.10;;;;;;;;;;4930468;28;20137;-70
2023/05/29 13:55:44;;;;;;;11.15;2.80;;;;;;;;;;4959001;28;20096;-70
2023/05/29 13:58:10;;;;;;;12.60;2.80;;;;;;;;;;4949126;28;20498;-70
2023/05/29 14:00:35;;;;;;;12.68;3.50;;;;;;;;;;4959804;28;20536;-70
2023/05/29 14:03:00;;;;;;;13.93;3.22;;;;;;;;;;4953157;28;20028;-71
2023/05/29 14:05:26;;;;;;;10.15;2.63;;;;;;;;;;4955633;28;20179;-70
2023/05/29 14:07:53;;;;;;;10.40;2.70;;;;;;;;;;4955176;28;20035;-70
2023/05/29 14:10:19;;;;;;;13.70;2.70;;;;;;;;;;4978376;28;20463;-71
2023/05/29 14:12:44;;;;;;;10.60;2.85;;;;;;;;;;4949559;28;20123;-70
2023/05/29 14:15:10;;;;;;;13.32;2.85;;;;;;;;;;4962265;28;20042;-70
2023/05/29 14:17:35;;;;;;;13.05;2.75;;;;;;;;;;4994489;28;20031;-70
2023/05/29 14:20:04;;;;;;;8.77;2.40;;;;;;;;;;4960395;28;20495;-71
2023/05/29 14:22:29;;;;;;;13.25;3.10;;;;;;;;;;4962036;28;20110;-71
2023/05/29 14:24:59;;;;;;;12.57;2.88;;;;;;;;;;4960773;28;20118;-69
2023/05/29 14:27:24;;;;;;;10.35;2.70;;;;;;;;;;4956623;28;20035;-71
2023/05/29 14:29:49;;;;;;;13.70;2.83;;;;;;;;;;4953555;28;20035;-70